Columbus, Ohio
Traffic Map
Current Weather Conditions
Columbus, Ohio
Few Clouds
Few Clouds

Feels Like: 9°
Wind Chill: Ceiling: Unl
Heat Index: Visibility: 10mi
Dew Point: Wind: 0mph
Humidity: 74% Direction: ° ()
Pressure: 30.02in Gusts: 0mph
Raw Report DataKCMH 250251Z 00000KT 10SM FEW250 09/04 A3002 RMK AO2 SLP168 T00890044 51000
Traffic Incident Summary
Active as of:
Severity:
Category:
InformationThere was an issue retrieving the traffic information for this location. Please try a different location or try again shortly.
Advertisements
Track Severe Weather on mobile